sensor_id;sensor_type;location;lat;lon;timestamp;pressure;altitude;pressure_sealevel;temperature
20733;BMP180;10527;52.124;5.196;2022-10-16T00:01:37;100773.00;;;24.00
20733;BMP180;10527;52.124;5.196;2022-10-16T00:04:04;100767.00;;;24.00
20733;BMP180;10527;52.124;5.196;2022-10-16T00:06:31;100773.00;;;24.00
20733;BMP180;10527;52.124;5.196;2022-10-16T00:08:59;100774.00;;;24.00
20733;BMP180;10527;52.124;5.196;2022-10-16T00:11:33;100779.00;;;24.00
20733;BMP180;10527;52.124;5.196;2022-10-16T00:14:04;100785.00;;;24.00
20733;BMP180;10527;52.124;5.196;2022-10-16T00:16:34;100781.00;;;24.00
20733;BMP180;10527;52.124;5.196;2022-10-16T00:19:01;100782.00;;;24.00
20733;BMP180;10527;52.124;5.196;2022-10-16T00:21:30;100786.00;;;24.00
20733;BMP180;10527;52.124;5.196;2022-10-16T00:24:02;100778.00;;;23.90
20733;BMP180;10527;52.124;5.196;2022-10-16T00:26:32;100772.00;;;23.90
20733;BMP180;10527;52.124;5.196;2022-10-16T00:29:00;100774.00;;;23.90
20733;BMP180;10527;52.124;5.196;2022-10-16T00:31:27;100765.00;;;23.90
20733;BMP180;10527;52.124;5.196;2022-10-16T00:33:54;100760.00;;;23.90
20733;BMP180;10527;52.124;5.196;2022-10-16T00:36:23;100765.00;;;23.90
20733;BMP180;10527;52.124;5.196;2022-10-16T00:38:55;100764.00;;;23.90
20733;BMP180;10527;52.124;5.196;2022-10-16T00:41:25;100767.00;;;23.80
20733;BMP180;10527;52.124;5.196;2022-10-16T00:44:01;100761.00;;;23.80
20733;BMP180;10527;52.124;5.196;2022-10-16T00:46:46;100767.00;;;23.80
20733;BMP180;10527;52.124;5.196;2022-10-16T00:49:16;100766.00;;;23.80
20733;BMP180;10527;52.124;5.196;2022-10-16T00:51:51;100772.00;;;23.80
20733;BMP180;10527;52.124;5.196;2022-10-16T00:54:27;100772.00;;;23.80
20733;BMP180;10527;52.124;5.196;2022-10-16T00:56:59;100776.00;;;23.80
20733;BMP180;10527;52.124;5.196;2022-10-16T00:59:39;100784.00;;;23.80
20733;BMP180;10527;52.124;5.196;2022-10-16T01:02:11;100784.00;;;23.80
20733;BMP180;10527;52.124;5.196;2022-10-16T01:04:44;100789.00;;;23.80
20733;BMP180;10527;52.124;5.196;2022-10-16T01:10:52;100790.00;;;23.80
20733;BMP180;10527;52.124;5.196;2022-10-16T01:12:55;100793.00;;;23.80
20733;BMP180;10527;52.124;5.196;2022-10-16T01:15:29;100783.00;;;23.90
20733;BMP180;10527;52.124;5.196;2022-10-16T01:18:10;100771.00;;;23.90
20733;BMP180;10527;52.124;5.196;2022-10-16T01:20:48;100780.00;;;23.90
20733;BMP180;10527;52.124;5.196;2022-10-16T01:23:56;100778.00;;;24.00
20733;BMP180;10527;52.124;5.196;2022-10-16T01:26:36;100797.00;;;24.00
20733;BMP180;10527;52.124;5.196;2022-10-16T01:32:27;100792.00;;;24.00
20733;BMP180;10527;52.124;5.196;2022-10-16T01:37:55;100794.00;;;24.00
20733;BMP180;10527;52.124;5.196;2022-10-16T01:40:28;100779.00;;;24.00
20733;BMP180;10527;52.124;5.196;2022-10-16T01:43:22;100759.00;;;24.00
20733;BMP180;10527;52.124;5.196;2022-10-16T01:45:48;100728.00;;;24.00
20733;BMP180;10527;52.124;5.196;2022-10-16T01:48:18;100734.00;;;24.00
20733;BMP180;10527;52.124;5.196;2022-10-16T01:50:59;100737.00;;;24.00
20733;BMP180;10527;52.124;5.196;2022-10-16T01:53:27;100752.00;;;24.00
20733;BMP180;10527;52.124;5.196;2022-10-16T01:55:57;100758.00;;;24.00
20733;BMP180;10527;52.124;5.196;2022-10-16T01:58:27;100761.00;;;24.00
20733;BMP180;10527;52.124;5.196;2022-10-16T02:00:55;100764.00;;;24.00
20733;BMP180;10527;52.124;5.196;2022-10-16T02:03:22;100765.00;;;24.00
20733;BMP180;10527;52.124;5.196;2022-10-16T02:05:54;100762.00;;;24.00
20733;BMP180;10527;52.124;5.196;2022-10-16T02:08:36;100769.00;;;24.00
20733;BMP180;10527;52.124;5.196;2022-10-16T02:11:03;100774.00;;;24.00
20733;BMP180;10527;52.124;5.196;2022-10-16T02:13:59;100778.00;;;24.10
20733;BMP180;10527;52.124;5.196;2022-10-16T02:16:41;100781.00;;;24.00
20733;BMP180;10527;52.124;5.196;2022-10-16T02:19:08;100780.00;;;24.00
20733;BMP180;10527;52.124;5.196;2022-10-16T02:21:54;100775.00;;;24.00
20733;BMP180;10527;52.124;5.196;2022-10-16T02:24:37;100790.00;;;24.00
20733;BMP180;10527;52.124;5.196;2022-10-16T02:27:46;100794.00;;;23.90
20733;BMP180;10527;52.124;5.196;2022-10-16T02:30:49;100784.00;;;23.90
20733;BMP180;10527;52.124;5.196;2022-10-16T02:33:19;100790.00;;;23.80
20733;BMP180;10527;52.124;5.196;2022-10-16T02:35:50;100792.00;;;23.80
20733;BMP180;10527;52.124;5.196;2022-10-16T02:38:20;100792.00;;;23.80
20733;BMP180;10527;52.124;5.196;2022-10-16T02:40:47;100795.00;;;23.80
20733;BMP180;10527;52.124;5.196;2022-10-16T02:43:15;100782.00;;;23.80
20733;BMP180;10527;52.124;5.196;2022-10-16T02:45:42;100790.00;;;23.80
20733;BMP180;10527;52.124;5.196;2022-10-16T02:48:09;100792.00;;;23.80
20733;BMP180;10527;52.124;5.196;2022-10-16T02:50:36;100802.00;;;23.80
20733;BMP180;10527;52.124;5.196;2022-10-16T02:53:02;100800.00;;;23.80
20733;BMP180;10527;52.124;5.196;2022-10-16T02:55:29;100797.00;;;23.80
20733;BMP180;10527;52.124;5.196;2022-10-16T02:57:56;100794.00;;;23.80
20733;BMP180;10527;52.124;5.196;2022-10-16T03:00:23;100808.00;;;23.80
20733;BMP180;10527;52.124;5.196;2022-10-16T03:02:50;100797.00;;;23.80
20733;BMP180;10527;52.124;5.196;2022-10-16T03:05:17;100797.00;;;23.80
20733;BMP180;10527;52.124;5.196;2022-10-16T03:07:44;100792.00;;;23.80
20733;BMP180;10527;52.124;5.196;2022-10-16T03:10:10;100794.00;;;23.80
20733;BMP180;10527;52.124;5.196;2022-10-16T03:12:37;100781.00;;;23.80
20733;BMP180;10527;52.124;5.196;2022-10-16T03:15:04;100784.00;;;23.80
20733;BMP180;10527;52.124;5.196;2022-10-16T03:17:32;100777.00;;;23.80
20733;BMP180;10527;52.124;5.196;2022-10-16T03:19:59;100784.00;;;23.80
20733;BMP180;10527;52.124;5.196;2022-10-16T03:22:26;100790.00;;;23.80
20733;BMP180;10527;52.124;5.196;2022-10-16T03:24:52;100793.00;;;23.80
20733;BMP180;10527;52.124;5.196;2022-10-16T03:27:19;100791.00;;;23.80
20733;BMP180;10527;52.124;5.196;2022-10-16T03:29:46;100795.00;;;23.80
20733;BMP180;10527;52.124;5.196;2022-10-16T03:32:14;100791.00;;;23.80
20733;BMP180;10527;52.124;5.196;2022-10-16T03:34:40;100798.00;;;23.80
20733;BMP180;10527;52.124;5.196;2022-10-16T03:37:07;100807.00;;;23.80
20733;BMP180;10527;52.124;5.196;2022-10-16T03:39:37;100819.00;;;23.80
20733;BMP180;10527;52.124;5.196;2022-10-16T03:42:04;100812.00;;;23.80
20733;BMP180;10527;52.124;5.196;2022-10-16T03:44:31;100813.00;;;23.70
20733;BMP180;10527;52.124;5.196;2022-10-16T03:46:57;100823.00;;;23.70
20733;BMP180;10527;52.124;5.196;2022-10-16T03:49:27;100816.00;;;23.70
20733;BMP180;10527;52.124;5.196;2022-10-16T03:51:54;100822.00;;;23.70
20733;BMP180;10527;52.124;5.196;2022-10-16T03:54:21;100819.00;;;23.70
20733;BMP180;10527;52.124;5.196;2022-10-16T03:56:48;100815.00;;;23.70
20733;BMP180;10527;52.124;5.196;2022-10-16T03:59:15;100829.00;;;23.70
20733;BMP180;10527;52.124;5.196;2022-10-16T04:01:42;100838.00;;;23.60
20733;BMP180;10527;52.124;5.196;2022-10-16T04:04:09;100831.00;;;23.60
20733;BMP180;10527;52.124;5.196;2022-10-16T04:06:35;100829.00;;;23.60
20733;BMP180;10527;52.124;5.196;2022-10-16T04:09:02;100844.00;;;23.60
20733;BMP180;10527;52.124;5.196;2022-10-16T04:11:29;100837.00;;;23.60
20733;BMP180;10527;52.124;5.196;2022-10-16T04:13:56;100838.00;;;23.60
20733;BMP180;10527;52.124;5.196;2022-10-16T04:16:22;100849.00;;;23.60
20733;BMP180;10527;52.124;5.196;2022-10-16T04:18:49;100848.00;;;23.60
20733;BMP180;10527;52.124;5.196;2022-10-16T04:21:16;100854.00;;;23.60
20733;BMP180;10527;52.124;5.196;2022-10-16T04:23:43;100848.00;;;23.60
20733;BMP180;10527;52.124;5.196;2022-10-16T04:26:09;100850.00;;;23.60
20733;BMP180;10527;52.124;5.196;2022-10-16T04:28:37;100858.00;;;23.60
20733;BMP180;10527;52.124;5.196;2022-10-16T04:31:06;100873.00;;;23.60
20733;BMP180;10527;52.124;5.196;2022-10-16T04:33:34;100875.00;;;23.60
20733;BMP180;10527;52.124;5.196;2022-10-16T04:36:02;100875.00;;;23.60
20733;BMP180;10527;52.124;5.196;2022-10-16T04:38:30;100874.00;;;23.60
20733;BMP180;10527;52.124;5.196;2022-10-16T04:40:57;100877.00;;;23.60
20733;BMP180;10527;52.124;5.196;2022-10-16T04:43:24;100884.00;;;23.60
20733;BMP180;10527;52.124;5.196;2022-10-16T04:45:51;100886.00;;;23.50
20733;BMP180;10527;52.124;5.196;2022-10-16T04:48:18;100888.00;;;23.50
20733;BMP180;10527;52.124;5.196;2022-10-16T04:50:45;100885.00;;;23.50
20733;BMP180;10527;52.124;5.196;2022-10-16T04:53:16;100888.00;;;23.50
20733;BMP180;10527;52.124;5.196;2022-10-16T04:55:43;100882.00;;;23.50
20733;BMP180;10527;52.124;5.196;2022-10-16T04:58:10;100888.00;;;23.50
20733;BMP180;10527;52.124;5.196;2022-10-16T05:00:36;100895.00;;;23.50
20733;BMP180;10527;52.124;5.196;2022-10-16T05:03:05;100898.00;;;23.50
20733;BMP180;10527;52.124;5.196;2022-10-16T05:05:46;100913.00;;;23.50
20733;BMP180;10527;52.124;5.196;2022-10-16T05:08:14;100921.00;;;23.50
20733;BMP180;10527;52.124;5.196;2022-10-16T05:10:43;100929.00;;;23.50
20733;BMP180;10527;52.124;5.196;2022-10-16T05:13:10;100929.00;;;23.50
20733;BMP180;10527;52.124;5.196;2022-10-16T05:15:37;100940.00;;;23.50
20733;BMP180;10527;52.124;5.196;2022-10-16T05:18:05;100929.00;;;23.40
20733;BMP180;10527;52.124;5.196;2022-10-16T05:20:32;100940.00;;;23.40
20733;BMP180;10527;52.124;5.196;2022-10-16T05:22:59;100932.00;;;23.40
20733;BMP180;10527;52.124;5.196;2022-10-16T05:25:26;100942.00;;;23.40
20733;BMP180;10527;52.124;5.196;2022-10-16T05:27:53;100948.00;;;23.40
20733;BMP180;10527;52.124;5.196;2022-10-16T05:30:20;100957.00;;;23.40
20733;BMP180;10527;52.124;5.196;2022-10-16T05:32:49;100958.00;;;23.40
20733;BMP180;10527;52.124;5.196;2022-10-16T05:35:17;100950.00;;;23.40
20733;BMP180;10527;52.124;5.196;2022-10-16T05:37:44;100963.00;;;23.40
20733;BMP180;10527;52.124;5.196;2022-10-16T05:40:11;100972.00;;;23.40
20733;BMP180;10527;52.124;5.196;2022-10-16T05:42:40;100970.00;;;23.40
20733;BMP180;10527;52.124;5.196;2022-10-16T05:45:11;100977.00;;;23.40
20733;BMP180;10527;52.124;5.196;2022-10-16T05:47:39;100985.00;;;23.40
20733;BMP180;10527;52.124;5.196;2022-10-16T05:50:07;100989.00;;;23.40
20733;BMP180;10527;52.124;5.196;2022-10-16T05:52:34;100999.00;;;23.40
20733;BMP180;10527;52.124;5.196;2022-10-16T05:55:01;100989.00;;;23.40
20733;BMP180;10527;52.124;5.196;2022-10-16T05:57:27;100996.00;;;23.40
20733;BMP180;10527;52.124;5.196;2022-10-16T05:59:55;100983.00;;;23.40
20733;BMP180;10527;52.124;5.196;2022-10-16T06:02:21;100991.00;;;23.50
20733;BMP180;10527;52.124;5.196;2022-10-16T06:04:48;101001.00;;;23.50
20733;BMP180;10527;52.124;5.196;2022-10-16T06:07:15;100999.00;;;23.50
20733;BMP180;10527;52.124;5.196;2022-10-16T06:09:42;101008.00;;;23.50
20733;BMP180;10527;52.124;5.196;2022-10-16T06:12:09;101001.00;;;23.50
20733;BMP180;10527;52.124;5.196;2022-10-16T06:14:35;101009.00;;;23.50
20733;BMP180;10527;52.124;5.196;2022-10-16T06:17:02;101023.00;;;23.50
20733;BMP180;10527;52.124;5.196;2022-10-16T06:19:29;101025.00;;;23.50
20733;BMP180;10527;52.124;5.196;2022-10-16T06:21:55;101020.00;;;23.50
20733;BMP180;10527;52.124;5.196;2022-10-16T06:24:25;101011.00;;;23.50
20733;BMP180;10527;52.124;5.196;2022-10-16T06:26:52;101005.00;;;23.60
20733;BMP180;10527;52.124;5.196;2022-10-16T06:29:18;101005.00;;;23.60
20733;BMP180;10527;52.124;5.196;2022-10-16T06:31:45;101019.00;;;23.60
20733;BMP180;10527;52.124;5.196;2022-10-16T06:34:12;101019.00;;;23.50
20733;BMP180;10527;52.124;5.196;2022-10-16T06:36:41;101017.00;;;23.50
20733;BMP180;10527;52.124;5.196;2022-10-16T06:39:10;101026.00;;;23.50
20733;BMP180;10527;52.124;5.196;2022-10-16T06:41:37;101002.00;;;23.50
20733;BMP180;10527;52.124;5.196;2022-10-16T06:44:07;101036.00;;;23.50
20733;BMP180;10527;52.124;5.196;2022-10-16T06:46:34;101033.00;;;23.50
20733;BMP180;10527;52.124;5.196;2022-10-16T06:49:01;101049.00;;;23.50
20733;BMP180;10527;52.124;5.196;2022-10-16T06:51:28;101033.00;;;23.50
20733;BMP180;10527;52.124;5.196;2022-10-16T06:53:56;101047.00;;;23.50
20733;BMP180;10527;52.124;5.196;2022-10-16T06:56:32;101044.00;;;23.50
20733;BMP180;10527;52.124;5.196;2022-10-16T06:59:00;101049.00;;;23.50
20733;BMP180;10527;52.124;5.196;2022-10-16T07:01:28;101065.00;;;23.50
20733;BMP180;10527;52.124;5.196;2022-10-16T07:03:55;101063.00;;;23.50
20733;BMP180;10527;52.124;5.196;2022-10-16T07:06:25;101065.00;;;23.50
20733;BMP180;10527;52.124;5.196;2022-10-16T07:08:52;101068.00;;;23.50
20733;BMP180;10527;52.124;5.196;2022-10-16T07:11:21;101066.00;;;23.50
20733;BMP180;10527;52.124;5.196;2022-10-16T07:13:51;101080.00;;;23.50
20733;BMP180;10527;52.124;5.196;2022-10-16T07:16:26;101083.00;;;23.50
20733;BMP180;10527;52.124;5.196;2022-10-16T07:18:59;101086.00;;;23.50
20733;BMP180;10527;52.124;5.196;2022-10-16T07:21:34;101083.00;;;23.50
20733;BMP180;10527;52.124;5.196;2022-10-16T07:24:13;101096.00;;;23.60
20733;BMP180;10527;52.124;5.196;2022-10-16T07:26:45;101104.00;;;23.60
20733;BMP180;10527;52.124;5.196;2022-10-16T07:29:17;101109.00;;;23.60
20733;BMP180;10527;52.124;5.196;2022-10-16T07:31:46;101110.00;;;23.60
20733;BMP180;10527;52.124;5.196;2022-10-16T07:34:16;101118.00;;;23.60
20733;BMP180;10527;52.124;5.196;2022-10-16T07:36:43;101125.00;;;23.70
20733;BMP180;10527;52.124;5.196;2022-10-16T07:39:10;101132.00;;;23.70
20733;BMP180;10527;52.124;5.196;2022-10-16T07:41:36;101141.00;;;23.70
20733;BMP180;10527;52.124;5.196;2022-10-16T07:44:04;101151.00;;;23.70
20733;BMP180;10527;52.124;5.196;2022-10-16T07:46:31;101152.00;;;23.70
20733;BMP180;10527;52.124;5.196;2022-10-16T07:48:59;101158.00;;;23.80
20733;BMP180;10527;52.124;5.196;2022-10-16T07:51:26;101157.00;;;23.70
20733;BMP180;10527;52.124;5.196;2022-10-16T07:54:13;101164.00;;;23.80
20733;BMP180;10527;52.124;5.196;2022-10-16T07:56:40;101164.00;;;23.80
20733;BMP180;10527;52.124;5.196;2022-10-16T07:59:10;101178.00;;;23.80
20733;BMP180;10527;52.124;5.196;2022-10-16T08:01:38;101176.00;;;23.80
20733;BMP180;10527;52.124;5.196;2022-10-16T08:04:05;101183.00;;;23.80
20733;BMP180;10527;52.124;5.196;2022-10-16T08:06:36;101176.00;;;23.80
20733;BMP180;10527;52.124;5.196;2022-10-16T08:09:08;101171.00;;;23.80
20733;BMP180;10527;52.124;5.196;2022-10-16T08:11:35;101177.00;;;23.80
20733;BMP180;10527;52.124;5.196;2022-10-16T08:14:02;101187.00;;;23.80
20733;BMP180;10527;52.124;5.196;2022-10-16T08:16:28;101181.00;;;23.80
20733;BMP180;10527;52.124;5.196;2022-10-16T08:18:55;101181.00;;;23.90
20733;BMP180;10527;52.124;5.196;2022-10-16T08:21:22;101198.00;;;23.90
20733;BMP180;10527;52.124;5.196;2022-10-16T08:23:50;101198.00;;;23.90
20733;BMP180;10527;52.124;5.196;2022-10-16T08:26:25;101196.00;;;23.90
20733;BMP180;10527;52.124;5.196;2022-10-16T08:28:53;101201.00;;;23.90
20733;BMP180;10527;52.124;5.196;2022-10-16T08:31:20;101201.00;;;24.00
20733;BMP180;10527;52.124;5.196;2022-10-16T08:33:47;101215.00;;;24.00
20733;BMP180;10527;52.124;5.196;2022-10-16T08:36:16;101217.00;;;24.00
20733;BMP180;10527;52.124;5.196;2022-10-16T08:38:43;101208.00;;;24.00
20733;BMP180;10527;52.124;5.196;2022-10-16T08:43:59;101226.00;;;24.10
20733;BMP180;10527;52.124;5.196;2022-10-16T08:49:17;101226.00;;;24.30
20733;BMP180;10527;52.124;5.196;2022-10-16T08:51:44;101235.00;;;24.30
20733;BMP180;10527;52.124;5.196;2022-10-16T08:54:29;101236.00;;;24.50
20733;BMP180;10527;52.124;5.196;2022-10-16T08:57:09;101243.00;;;24.70
20733;BMP180;10527;52.124;5.196;2022-10-16T08:59:38;101243.00;;;25.00
20733;BMP180;10527;52.124;5.196;2022-10-16T09:02:29;101253.00;;;25.40
20733;BMP180;10527;52.124;5.196;2022-10-16T09:05:22;101250.00;;;25.80
20733;BMP180;10527;52.124;5.196;2022-10-16T09:08:07;101265.00;;;26.20
20733;BMP180;10527;52.124;5.196;2022-10-16T09:10:43;101266.00;;;26.60
20733;BMP180;10527;52.124;5.196;2022-10-16T09:16:35;101277.00;;;27.20
20733;BMP180;10527;52.124;5.196;2022-10-16T09:19:31;101286.00;;;27.50
20733;BMP180;10527;52.124;5.196;2022-10-16T09:22:13;101287.00;;;27.50
20733;BMP180;10527;52.124;5.196;2022-10-16T09:24:42;101293.00;;;27.50
20733;BMP180;10527;52.124;5.196;2022-10-16T09:27:14;101286.00;;;27.50
20733;BMP180;10527;52.124;5.196;2022-10-16T09:29:41;101292.00;;;27.30
20733;BMP180;10527;52.124;5.196;2022-10-16T09:32:28;101299.00;;;27.30
20733;BMP180;10527;52.124;5.196;2022-10-16T09:34:56;101293.00;;;27.20
20733;BMP180;10527;52.124;5.196;2022-10-16T09:37:25;101292.00;;;27.30
20733;BMP180;10527;52.124;5.196;2022-10-16T09:39:54;101300.00;;;27.40
20733;BMP180;10527;52.124;5.196;2022-10-16T09:42:41;101288.00;;;27.40
20733;BMP180;10527;52.124;5.196;2022-10-16T09:45:23;101301.00;;;27.40
20733;BMP180;10527;52.124;5.196;2022-10-16T09:47:50;101298.00;;;27.40
20733;BMP180;10527;52.124;5.196;2022-10-16T09:50:27;101296.00;;;27.50
20733;BMP180;10527;52.124;5.196;2022-10-16T09:53:38;101297.00;;;27.50
20733;BMP180;10527;52.124;5.196;2022-10-16T09:56:06;101315.00;;;27.50
20733;BMP180;10527;52.124;5.196;2022-10-16T09:58:50;101308.00;;;27.50
20733;BMP180;10527;52.124;5.196;2022-10-16T10:01:20;101307.00;;;27.40
20733;BMP180;10527;52.124;5.196;2022-10-16T10:03:47;101312.00;;;27.40
20733;BMP180;10527;52.124;5.196;2022-10-16T10:06:26;101327.00;;;27.40
20733;BMP180;10527;52.124;5.196;2022-10-16T10:09:23;101313.00;;;27.50
20733;BMP180;10527;52.124;5.196;2022-10-16T10:14:31;101316.00;;;27.40
20733;BMP180;10527;52.124;5.196;2022-10-16T10:17:21;101334.00;;;27.40
20733;BMP180;10527;52.124;5.196;2022-10-16T10:19:55;101324.00;;;27.40
20733;BMP180;10527;52.124;5.196;2022-10-16T10:22:44;101331.00;;;27.40
20733;BMP180;10527;52.124;5.196;2022-10-16T10:31:06;101341.00;;;27.30
20733;BMP180;10527;52.124;5.196;2022-10-16T10:33:49;101342.00;;;27.30
20733;BMP180;10527;52.124;5.196;2022-10-16T10:36:31;101345.00;;;27.30
20733;BMP180;10527;52.124;5.196;2022-10-16T10:39:17;101347.00;;;27.30
20733;BMP180;10527;52.124;5.196;2022-10-16T10:45:15;101344.00;;;27.30
20733;BMP180;10527;52.124;5.196;2022-10-16T10:51:01;101349.00;;;27.40
20733;BMP180;10527;52.124;5.196;2022-10-16T10:53:39;101350.00;;;27.40
20733;BMP180;10527;52.124;5.196;2022-10-16T11:05:29;101379.00;;;27.30
20733;BMP180;10527;52.124;5.196;2022-10-16T11:11:03;101372.00;;;27.10
20733;BMP180;10527;52.124;5.196;2022-10-16T11:16:26;101378.00;;;27.00
20733;BMP180;10527;52.124;5.196;2022-10-16T11:19:14;101386.00;;;27.10
20733;BMP180;10527;52.124;5.196;2022-10-16T11:28:19;101392.00;;;27.00
20733;BMP180;10527;52.124;5.196;2022-10-16T11:34:26;101404.00;;;27.00
20733;BMP180;10527;52.124;5.196;2022-10-16T11:37:11;101409.00;;;27.10
20733;BMP180;10527;52.124;5.196;2022-10-16T11:39:39;101405.00;;;27.10
20733;BMP180;10527;52.124;5.196;2022-10-16T11:42:31;101405.00;;;27.20
20733;BMP180;10527;52.124;5.196;2022-10-16T11:45:39;101399.00;;;27.20
20733;BMP180;10527;52.124;5.196;2022-10-16T11:48:23;101412.00;;;27.30
20733;BMP180;10527;52.124;5.196;2022-10-16T11:51:18;101410.00;;;27.30
20733;BMP180;10527;52.124;5.196;2022-10-16T11:54:00;101410.00;;;27.30
20733;BMP180;10527;52.124;5.196;2022-10-16T11:56:33;101409.00;;;27.20
20733;BMP180;10527;52.124;5.196;2022-10-16T11:59:39;101406.00;;;27.20
20733;BMP180;10527;52.124;5.196;2022-10-16T12:08:11;101421.00;;;27.20
20733;BMP180;10527;52.124;5.196;2022-10-16T12:10:42;101420.00;;;27.20
20733;BMP180;10527;52.124;5.196;2022-10-16T12:18:41;101424.00;;;27.30
20733;BMP180;10527;52.124;5.196;2022-10-16T12:21:09;101421.00;;;27.40
20733;BMP180;10527;52.124;5.196;2022-10-16T12:24:02;101429.00;;;27.50
20733;BMP180;10527;52.124;5.196;2022-10-16T12:26:37;101432.00;;;27.60
20733;BMP180;10527;52.124;5.196;2022-10-16T12:29:35;101428.00;;;27.70
20733;BMP180;10527;52.124;5.196;2022-10-16T12:32:06;101438.00;;;27.80
20733;BMP180;10527;52.124;5.196;2022-10-16T12:35:19;101435.00;;;27.80
20733;BMP180;10527;52.124;5.196;2022-10-16T12:37:47;101441.00;;;27.90
20733;BMP180;10527;52.124;5.196;2022-10-16T12:40:31;101435.00;;;28.00
20733;BMP180;10527;52.124;5.196;2022-10-16T12:42:59;101447.00;;;28.00
20733;BMP180;10527;52.124;5.196;2022-10-16T12:45:32;101439.00;;;28.00
20733;BMP180;10527;52.124;5.196;2022-10-16T12:48:04;101432.00;;;28.00
20733;BMP180;10527;52.124;5.196;2022-10-16T12:50:45;101440.00;;;28.00
20733;BMP180;10527;52.124;5.196;2022-10-16T12:53:25;101445.00;;;27.90
20733;BMP180;10527;52.124;5.196;2022-10-16T12:58:51;101441.00;;;27.80
20733;BMP180;10527;52.124;5.196;2022-10-16T13:05:00;101437.00;;;27.90
20733;BMP180;10527;52.124;5.196;2022-10-16T13:10:41;101437.00;;;27.90
20733;BMP180;10527;52.124;5.196;2022-10-16T13:19:44;101468.00;;;28.00
20733;BMP180;10527;52.124;5.196;2022-10-16T13:22:32;101459.00;;;28.00
20733;BMP180;10527;52.124;5.196;2022-10-16T13:28:17;101466.00;;;28.00
20733;BMP180;10527;52.124;5.196;2022-10-16T13:30:55;101464.00;;;28.00
20733;BMP180;10527;52.124;5.196;2022-10-16T13:33:37;101464.00;;;28.00
20733;BMP180;10527;52.124;5.196;2022-10-16T13:36:07;101474.00;;;28.10
20733;BMP180;10527;52.124;5.196;2022-10-16T13:38:45;101482.00;;;28.10
20733;BMP180;10527;52.124;5.196;2022-10-16T13:41:17;101487.00;;;28.10
20733;BMP180;10527;52.124;5.196;2022-10-16T13:43:53;101486.00;;;28.10
20733;BMP180;10527;52.124;5.196;2022-10-16T13:46:25;101484.00;;;28.10
20733;BMP180;10527;52.124;5.196;2022-10-16T13:49:10;101484.00;;;28.10
20733;BMP180;10527;52.124;5.196;2022-10-16T13:51:38;101471.00;;;28.00
20733;BMP180;10527;52.124;5.196;2022-10-16T13:54:05;101477.00;;;28.00
20733;BMP180;10527;52.124;5.196;2022-10-16T13:56:32;101479.00;;;28.00
20733;BMP180;10527;52.124;5.196;2022-10-16T13:59:06;101483.00;;;28.00
20733;BMP180;10527;52.124;5.196;2022-10-16T14:01:40;101486.00;;;28.00
20733;BMP180;10527;52.124;5.196;2022-10-16T14:04:18;101494.00;;;28.00
20733;BMP180;10527;52.124;5.196;2022-10-16T14:06:49;101489.00;;;28.00
20733;BMP180;10527;52.124;5.196;2022-10-16T14:09:30;101488.00;;;28.00
20733;BMP180;10527;52.124;5.196;2022-10-16T14:12:11;101488.00;;;28.00
20733;BMP180;10527;52.124;5.196;2022-10-16T14:14:46;101485.00;;;28.00
20733;BMP180;10527;52.124;5.196;2022-10-16T14:17:29;101484.00;;;28.00
20733;BMP180;10527;52.124;5.196;2022-10-16T14:19:59;101487.00;;;28.00
20733;BMP180;10527;52.124;5.196;2022-10-16T14:22:40;101481.00;;;28.00
20733;BMP180;10527;52.124;5.196;2022-10-16T14:25:27;101476.00;;;28.00
20733;BMP180;10527;52.124;5.196;2022-10-16T14:30:29;101480.00;;;28.00
20733;BMP180;10527;52.124;5.196;2022-10-16T14:33:18;101478.00;;;28.10
20733;BMP180;10527;52.124;5.196;2022-10-16T14:35:46;101484.00;;;28.10
20733;BMP180;10527;52.124;5.196;2022-10-16T14:38:20;101485.00;;;28.10
20733;BMP180;10527;52.124;5.196;2022-10-16T14:40:49;101484.00;;;28.10
20733;BMP180;10527;52.124;5.196;2022-10-16T14:43:39;101482.00;;;28.10
20733;BMP180;10527;52.124;5.196;2022-10-16T14:46:16;101487.00;;;28.10
20733;BMP180;10527;52.124;5.196;2022-10-16T14:48:50;101491.00;;;28.10
20733;BMP180;10527;52.124;5.196;2022-10-16T14:51:19;101484.00;;;28.10
20733;BMP180;10527;52.124;5.196;2022-10-16T14:53:47;101495.00;;;28.20
20733;BMP180;10527;52.124;5.196;2022-10-16T14:56:24;101486.00;;;28.20
20733;BMP180;10527;52.124;5.196;2022-10-16T14:58:55;101494.00;;;28.20
20733;BMP180;10527;52.124;5.196;2022-10-16T15:01:22;101488.00;;;28.20
20733;BMP180;10527;52.124;5.196;2022-10-16T15:03:48;101485.00;;;28.20
20733;BMP180;10527;52.124;5.196;2022-10-16T15:06:16;101488.00;;;28.20
20733;BMP180;10527;52.124;5.196;2022-10-16T15:08:43;101486.00;;;28.30
20733;BMP180;10527;52.124;5.196;2022-10-16T15:11:18;101485.00;;;28.30
20733;BMP180;10527;52.124;5.196;2022-10-16T15:13:46;101489.00;;;28.30
20733;BMP180;10527;52.124;5.196;2022-10-16T15:16:15;101486.00;;;28.30
20733;BMP180;10527;52.124;5.196;2022-10-16T15:18:43;101483.00;;;28.30
20733;BMP180;10527;52.124;5.196;2022-10-16T15:21:32;101486.00;;;28.40
20733;BMP180;10527;52.124;5.196;2022-10-16T15:24:00;101490.00;;;28.40
20733;BMP180;10527;52.124;5.196;2022-10-16T15:26:29;101494.00;;;28.40
20733;BMP180;10527;52.124;5.196;2022-10-16T15:28:57;101489.00;;;28.40
20733;BMP180;10527;52.124;5.196;2022-10-16T15:31:24;101485.00;;;28.40
20733;BMP180;10527;52.124;5.196;2022-10-16T15:33:53;101494.00;;;28.40
20733;BMP180;10527;52.124;5.196;2022-10-16T15:36:34;101478.00;;;28.40
20733;BMP180;10527;52.124;5.196;2022-10-16T15:39:05;101467.00;;;28.40
20733;BMP180;10527;52.124;5.196;2022-10-16T15:41:32;101484.00;;;28.40
20733;BMP180;10527;52.124;5.196;2022-10-16T15:43:59;101489.00;;;28.40
20733;BMP180;10527;52.124;5.196;2022-10-16T15:46:26;101484.00;;;28.30
20733;BMP180;10527;52.124;5.196;2022-10-16T15:48:58;101471.00;;;28.30
20733;BMP180;10527;52.124;5.196;2022-10-16T15:51:28;101478.00;;;28.30
20733;BMP180;10527;52.124;5.196;2022-10-16T15:53:56;101480.00;;;28.30
20733;BMP180;10527;52.124;5.196;2022-10-16T15:56:23;101482.00;;;28.30
20733;BMP180;10527;52.124;5.196;2022-10-16T15:58:52;101482.00;;;28.20